Fecha, hora, temperatura, viento dirección y velocidad, humedad y presión.

  • 26-02-2020 17:00:00 | 11.10°C | Oeste |22.00 km/h | 71.00% | 1007.40 hPa
  • 26-02-2020 16:00:00 | 11.00°C | Oeste |23.00 km/h | 68.00% | 1007.50 hPa
  • 26-02-2020 15:00:00 | 10.50°C | Oeste |19.00 km/h | 84.00% | 1007.80 hPa
  • 26-02-2020 14:00:00 | 12.30°C | Oeste |28.00 km/h | 60.00% | 1008.40 hPa
  • 26-02-2020 12:00:00 | 10.50°C | Oeste |23.00 km/h | 72.00% | 1009.40 hPa
  • 26-02-2020 12:00:00 | 10.50°C | Oeste |23.00 km/h | 72.00% | 1009.40 hPa
  • 26-02-2020 11:00:00 | 10.70°C | Oeste |21.00 km/h | 70.00% | 1009.30 hPa
  • 26-02-2020 10:00:00 | 9.20°C | Oeste |23.00 km/h | 78.00% | 1008.90 hPa
  • 26-02-2020 09:00:00 | 9.60°C | Oeste |20.00 km/h | 69.00% | 1008.20 hPa
  • 26-02-2020 08:00:00 | 9.10°C | Oeste |32.00 km/h | 74.00% | 1007.60 hPa
  • 26-02-2020 07:00:00 | 8.60°C | Oeste |23.00 km/h | 80.00% | 1007.80 hPa
  • 26-02-2020 06:00:00 | 9.20°C | Oeste |21.00 km/h | 73.00% | 1007.70 hPa
  • 26-02-2020 05:00:00 | 9.60°C | Oeste |24.00 km/h | 68.00% | 1007.70 hPa
  • 26-02-2020 04:00:00 | 9.60°C | Oeste |24.00 km/h | 64.00% | 1007.70 hPa
  • 26-02-2020 03:00:00 | 10.10°C | Oeste |26.00 km/h | 64.00% | 1008.00 hPa
  • 26-02-2020 02:00:00 | 10.30°C | Oeste |28.00 km/h | 61.00% | 1008.00 hPa
  • 26-02-2020 01:00:00 | 10.30°C | Oeste |31.00 km/h | 57.00% | 1008.10 hPa
  • 26-02-2020 00:00:00 | 10.00°C | Oeste |25.00 km/h | 67.00% | 1008.00 hPa
  • 25-02-2020 23:00:00 | 10.60°C | Oeste |27.00 km/h | 63.00% | 1007.90 hPa
  • 25-02-2020 22:00:00 | 10.00°C | Oeste |23.00 km/h | 73.00% | 1007.70 hPa
  • 25-02-2020 21:00:00 | 9.80°C | Oeste |27.00 km/h | 84.00% | 1007.70 hPa
  • 25-02-2020 20:00:00 | 10.30°C | Oeste |19.00 km/h | 70.00% | 1007.60 hPa
  • 25-02-2020 19:00:00 | 10.50°C | Oeste |27.00 km/h | 70.00% | 1007.00 hPa
  • 25-02-2020 18:00:00 | 10.90°C | Oeste |35.00 km/h | 74.00% | 1006.90 hPa
    • diseño web asturias Información sobre el estado de las mareas, altura de la marejada, temperatura del agua y otros datos de Gijón en Asturias.

      Surf Gijón